createdAt,value
2022-11-06T00:03:10.180Z,13.60
2022-11-06T00:08:12.086Z,12.65
2022-11-06T00:13:14.036Z,9.95
2022-11-06T00:18:15.781Z,16.30
2022-11-06T00:23:17.463Z,11.13
2022-11-06T00:28:19.551Z,11.20
2022-11-06T00:33:21.068Z,14.50
2022-11-06T00:38:22.525Z,18.17
2022-11-06T00:43:23.997Z,15.23
2022-11-06T00:48:25.442Z,15.52
2022-11-06T00:53:26.917Z,13.90
2022-11-06T00:58:28.376Z,19.50
2022-11-06T01:03:29.825Z,16.15
2022-11-06T01:08:32.246Z,19.45
2022-11-06T01:13:33.880Z,19.00
2022-11-06T01:18:36.838Z,10.90
2022-11-06T01:23:38.415Z,18.10
2022-11-06T01:28:41.338Z,16.40
2022-11-06T01:33:43.136Z,16.73
2022-11-06T01:38:46.942Z,18.88
2022-11-06T01:43:54.194Z,19.63
2022-11-06T01:48:58.369Z,18.23
2022-11-06T01:54:02.748Z,17.00
2022-11-06T01:59:06.924Z,17.95
2022-11-06T02:04:11.833Z,20.60
2022-11-06T02:09:14.028Z,19.52
2022-11-06T02:14:43.161Z,17.70
2022-11-06T02:20:02.499Z,18.55
2022-11-06T02:25:21.423Z,15.65
2022-11-06T02:30:23.014Z,13.20
2022-11-06T02:35:30.603Z,16.50
2022-11-06T02:40:36.844Z,14.85
2022-11-06T02:45:45.256Z,11.98
2022-11-06T02:50:50.373Z,12.70
2022-11-06T02:55:56.337Z,12.35
2022-11-06T03:01:07.651Z,14.07
2022-11-06T03:06:23.283Z,15.63
2022-11-06T03:11:31.506Z,12.63
2022-11-06T03:17:03.285Z,13.73
2022-11-06T03:22:13.265Z,11.05
2022-11-06T03:27:20.542Z,17.38
2022-11-06T03:32:38.596Z,15.90
2022-11-06T03:42:46.933Z,12.55
2022-11-06T03:48:09.287Z,16.23
2022-11-06T03:53:51.139Z,14.70
2022-11-06T03:58:55.885Z,12.82
2022-11-06T04:04:11.712Z,11.07
2022-11-06T04:09:35.004Z,12.43
2022-11-06T04:14:38.180Z,12.02
2022-11-06T04:19:48.583Z,10.27
2022-11-06T04:25:33.417Z,9.63
2022-11-06T04:31:01.923Z,8.35
2022-11-06T04:36:11.050Z,14.70
2022-11-06T04:41:21.276Z,13.15
2022-11-06T04:46:46.279Z,16.75
2022-11-06T04:51:48.418Z,18.38
2022-11-06T04:56:50.497Z,20.40
2022-11-06T05:01:52.135Z,20.73
2022-11-06T05:06:53.728Z,18.20
2022-11-06T05:11:55.225Z,19.15
2022-11-06T05:16:56.704Z,21.48
2022-11-06T05:22:16.623Z,23.13
2022-11-06T05:27:18.149Z,18.40
2022-11-06T05:32:19.616Z,25.52
2022-11-06T05:37:21.078Z,26.77
2022-11-06T05:42:22.608Z,30.08
2022-11-06T05:47:24.057Z,23.70
2022-11-06T05:52:25.724Z,29.05
2022-11-06T05:57:27.212Z,19.98
2022-11-06T06:02:28.760Z,22.92
2022-11-06T06:07:30.705Z,20.83
2022-11-06T06:12:32.167Z,23.55
2022-11-06T06:17:33.680Z,20.15
2022-11-06T06:22:35.181Z,18.13
2022-11-06T06:27:37.375Z,18.33
2022-11-06T06:32:38.865Z,20.92
2022-11-06T06:37:40.356Z,20.30
2022-11-06T06:42:41.834Z,16.13
2022-11-06T06:47:43.290Z,14.93
2022-11-06T06:52:44.780Z,16.23
2022-11-06T06:57:46.716Z,13.85
2022-11-06T07:02:48.167Z,22.67
2022-11-06T07:07:49.688Z,15.82
2022-11-06T07:12:51.174Z,13.88
2022-11-06T07:17:52.713Z,17.77
2022-11-06T07:22:54.157Z,12.43
2022-11-06T07:28:00.345Z,12.73
2022-11-06T07:33:05.440Z,17.50
2022-11-06T07:38:07.190Z,14.48
2022-11-06T07:43:10.688Z,20.58
2022-11-06T07:48:12.373Z,10.35
2022-11-06T07:53:14.195Z,12.68
2022-11-06T07:58:17.777Z,16.45
2022-11-06T08:03:19.775Z,17.00
2022-11-06T08:08:21.333Z,11.48
2022-11-06T08:13:22.849Z,12.18
2022-11-06T08:18:25.516Z,15.63
2022-11-06T08:23:27.479Z,10.88
2022-11-06T08:28:29.477Z,12.02
2022-11-06T08:33:31.070Z,12.77
2022-11-06T08:38:33.047Z,10.75
2022-11-06T08:43:35.468Z,10.93
2022-11-06T08:48:37.300Z,9.25
2022-11-06T08:53:38.810Z,9.07
2022-11-06T08:58:40.657Z,11.57
2022-11-06T09:03:42.119Z,9.07
2022-11-06T09:08:43.611Z,14.43
2022-11-06T09:13:45.049Z,12.57
2022-11-06T09:18:46.513Z,8.68
2022-11-06T09:23:48.594Z,12.30
2022-11-06T09:28:50.037Z,17.98
2022-11-06T09:33:51.759Z,16.45
2022-11-06T09:38:53.284Z,13.15
2022-11-06T09:44:17.349Z,12.35
2022-11-06T09:49:39.281Z,15.18
2022-11-06T09:54:52.094Z,10.55
2022-11-06T09:59:58.171Z,10.85
2022-11-06T10:05:07.956Z,10.98
2022-11-06T10:10:16.584Z,11.13
2022-11-06T10:15:25.013Z,12.77
2022-11-06T10:20:32.093Z,13.52
2022-11-06T10:25:44.715Z,9.32
2022-11-06T10:31:01.093Z,11.65
2022-11-06T10:36:16.204Z,11.63
2022-11-06T10:41:24.701Z,14.23
2022-11-06T10:46:32.019Z,10.20
2022-11-06T10:51:45.663Z,9.88
2022-11-06T10:56:57.191Z,12.95
2022-11-06T11:01:58.714Z,14.20
2022-11-06T11:07:18.803Z,7.25
2022-11-06T11:12:25.533Z,9.52
2022-11-06T11:17:26.986Z,13.77
2022-11-06T11:22:32.954Z,10.82
2022-11-06T11:27:53.059Z,13.23
2022-11-06T11:32:54.736Z,10.20
2022-11-06T11:38:15.513Z,11.68
2022-11-06T11:43:28.190Z,12.27
2022-11-06T11:48:59.326Z,10.40
2022-11-06T11:54:09.495Z,8.32
2022-11-06T11:59:17.364Z,9.93
2022-11-06T12:04:27.980Z,8.52
2022-11-06T12:09:33.691Z,9.93
2022-11-06T12:14:40.000Z,9.18
2022-11-06T12:19:46.866Z,8.77
2022-11-06T12:25:09.133Z,9.77
2022-11-06T12:30:19.859Z,9.75
2022-11-06T12:35:36.200Z,12.38
2022-11-06T12:40:40.179Z,7.60
2022-11-06T12:46:04.103Z,7.55
2022-11-06T12:51:23.189Z,10.23
2022-11-06T12:56:42.842Z,16.88
2022-11-06T13:02:09.336Z,10.25
2022-11-06T13:07:19.637Z,10.55
2022-11-06T13:12:33.410Z,10.40
2022-11-06T13:17:55.634Z,9.65
2022-11-06T13:23:03.813Z,10.43
2022-11-06T13:28:29.397Z,12.35
2022-11-06T13:33:38.424Z,7.43
2022-11-06T13:38:46.426Z,13.90
2022-11-06T13:44:15.856Z,6.80
2022-11-06T13:49:30.387Z,12.00
2022-11-06T13:54:59.728Z,8.93
2022-11-06T14:00:19.210Z,10.80
2022-11-06T14:05:35.980Z,10.38
2022-11-06T14:10:45.863Z,11.82
2022-11-06T14:15:49.099Z,9.88
2022-11-06T14:21:36.296Z,16.85
2022-11-06T14:26:41.934Z,8.93
2022-11-06T14:32:12.612Z,8.82
2022-11-06T14:37:20.039Z,12.57
2022-11-06T14:42:27.237Z,8.93
2022-11-06T14:47:35.757Z,9.55
2022-11-06T14:52:45.195Z,12.00
2022-11-06T14:57:50.883Z,12.18
2022-11-06T15:02:55.503Z,13.23
2022-11-06T15:08:04.953Z,15.98
2022-11-06T15:13:24.708Z,13.77
2022-11-06T15:18:26.707Z,18.02
2022-11-06T15:23:34.402Z,9.70
2022-11-06T15:33:55.537Z,13.88
2022-11-06T15:38:57.476Z,14.90
2022-11-06T15:43:58.955Z,14.52
2022-11-06T15:49:20.412Z,11.68
2022-11-06T15:54:44.112Z,11.25
2022-11-06T15:59:45.936Z,18.38
2022-11-06T16:04:48.961Z,10.73
2022-11-06T16:09:51.808Z,8.90
2022-11-06T16:14:53.404Z,10.15
2022-11-06T16:19:59.675Z,8.43
2022-11-06T16:25:04.443Z,9.55
2022-11-06T16:30:06.854Z,10.18
2022-11-06T16:35:36.916Z,7.03
2022-11-06T16:40:44.338Z,9.05
2022-11-06T16:45:56.615Z,6.40
2022-11-06T16:51:05.277Z,11.40
2022-11-06T16:56:07.533Z,7.30
2022-11-06T17:01:09.619Z,6.90
2022-11-06T17:06:22.379Z,10.00
2022-11-06T17:11:23.907Z,9.05
2022-11-06T17:16:27.823Z,5.15
2022-11-06T17:21:29.346Z,13.20
2022-11-06T17:26:31.655Z,9.13
2022-11-06T17:31:33.165Z,8.48
2022-11-06T17:36:36.778Z,6.45
2022-11-06T17:41:38.316Z,10.25
2022-11-06T17:46:44.630Z,6.93
2022-11-06T17:51:49.924Z,9.38
2022-11-06T17:56:53.641Z,9.38
2022-11-06T18:01:55.918Z,7.05
2022-11-06T18:06:57.666Z,7.65
2022-11-06T18:11:59.194Z,9.93
2022-11-06T18:17:01.083Z,7.07
2022-11-06T18:22:06.522Z,5.63
2022-11-06T18:27:09.439Z,7.10
2022-11-06T18:32:11.045Z,4.57
2022-11-06T18:37:12.516Z,6.88
2022-11-06T18:42:13.976Z,8.43
2022-11-06T18:47:15.494Z,6.78
2022-11-06T18:52:32.481Z,7.20
2022-11-06T18:57:38.482Z,10.35
2022-11-06T19:02:40.920Z,9.52
2022-11-06T19:07:46.462Z,15.30
2022-11-06T19:12:51.023Z,12.60
2022-11-06T19:17:53.855Z,11.95
2022-11-06T19:22:55.537Z,17.05
2022-11-06T19:27:57.051Z,10.18
2022-11-06T19:32:58.544Z,9.75
2022-11-06T19:38:00.280Z,11.75
2022-11-06T19:43:03.831Z,12.43
2022-11-06T19:48:05.529Z,13.18
2022-11-06T19:53:07.025Z,14.95
2022-11-06T19:58:08.493Z,11.82
2022-11-06T20:03:12.086Z,12.73
2022-11-06T20:08:14.146Z,13.70
2022-11-06T20:13:16.019Z,10.73
2022-11-06T20:18:17.741Z,12.10
2022-11-06T20:23:19.197Z,10.85
2022-11-06T20:28:21.015Z,19.00
2022-11-06T20:33:22.987Z,12.45
2022-11-06T20:38:25.696Z,13.63
2022-11-06T20:43:27.143Z,13.95
2022-11-06T20:48:28.754Z,14.23
2022-11-06T20:53:30.924Z,13.23
2022-11-06T20:58:33.142Z,12.90
2022-11-06T21:03:34.653Z,12.77
2022-11-06T21:08:37.700Z,14.20
2022-11-06T21:13:41.381Z,16.92
2022-11-06T21:18:43.495Z,17.70
2022-11-06T21:23:45.021Z,13.35
2022-11-06T21:28:46.712Z,13.10
2022-11-06T21:33:50.547Z,15.50
2022-11-06T21:38:53.170Z,12.45
2022-11-06T21:43:55.491Z,12.48
2022-11-06T21:48:57.547Z,16.85
2022-11-06T21:54:18.364Z,14.43
2022-11-06T21:59:25.331Z,16.23
2022-11-06T22:04:26.773Z,13.60
2022-11-06T22:09:28.363Z,18.30
2022-11-06T22:14:29.845Z,14.75
2022-11-06T22:19:31.331Z,13.70
2022-11-06T22:24:32.806Z,15.70
2022-11-06T22:29:34.533Z,12.55
2022-11-06T22:34:36.075Z,13.55
2022-11-06T22:39:37.561Z,14.95
2022-11-06T22:44:39.024Z,15.63
2022-11-06T22:49:40.746Z,14.65
2022-11-06T22:54:42.209Z,14.10
2022-11-06T22:59:43.682Z,15.52
2022-11-06T23:04:45.156Z,14.60
2022-11-06T23:09:46.628Z,12.10
2022-11-06T23:14:48.357Z,14.70
2022-11-06T23:19:50.165Z,13.27
2022-11-06T23:24:51.969Z,13.70
2022-11-06T23:29:56.014Z,16.17
2022-11-06T23:34:57.555Z,16.50
2022-11-06T23:39:59.030Z,15.35
2022-11-06T23:45:19.153Z,17.55
2022-11-06T23:50:20.650Z,11.15
2022-11-06T23:55:22.193Z,14.27
